createdAt,value
2022-08-27T00:01:39.586Z,100084.53
2022-08-27T00:04:06.623Z,100077.41
2022-08-27T00:06:33.654Z,100082.63
2022-08-27T00:09:00.590Z,100083.34
2022-08-27T00:11:28.085Z,100083.81
2022-08-27T00:13:56.743Z,100081.31
2022-08-27T00:16:24.542Z,100079.53
2022-08-27T00:18:53.558Z,100068.19
2022-08-27T00:21:20.873Z,100070.22
2022-08-27T00:23:48.492Z,100066.59
2022-08-27T00:26:16.236Z,100058.75
2022-08-27T00:28:44.004Z,100055.00
2022-08-27T00:31:12.286Z,100057.84
2022-08-27T00:33:40.918Z,100052.75
2022-08-27T00:36:08.616Z,100054.19
2022-08-27T00:38:37.434Z,100048.53
2022-08-27T00:41:07.621Z,100050.06
2022-08-27T00:43:59.498Z,100037.78
2022-08-27T00:46:38.769Z,100045.50
2022-08-27T00:49:12.876Z,100050.44
2022-08-27T00:51:40.492Z,100050.97
2022-08-27T00:54:09.486Z,100047.06
2022-08-27T00:56:51.373Z,100043.09
2022-08-27T00:59:23.584Z,100046.31
2022-08-27T01:02:10.483Z,100047.13
2022-08-27T01:04:41.394Z,100035.06
2022-08-27T01:07:10.181Z,100034.63
2022-08-27T01:09:39.022Z,100027.56
2022-08-27T01:12:06.233Z,100023.22
2022-08-27T01:14:33.829Z,100024.13
2022-08-27T01:17:02.739Z,100031.09
2022-08-27T01:19:41.289Z,100024.81
2022-08-27T01:22:26.390Z,100025.19
2022-08-27T01:24:59.247Z,100022.94
2022-08-27T01:27:31.372Z,100020.97
2022-08-27T01:29:59.766Z,100025.88
2022-08-27T01:32:31.250Z,100026.34
2022-08-27T01:34:59.548Z,100023.38
2022-08-27T01:37:28.108Z,100022.06
2022-08-27T01:39:58.001Z,100026.41
2022-08-27T01:42:41.938Z,100028.94
2022-08-27T01:45:11.812Z,100032.16
2022-08-27T01:47:39.739Z,100034.88
2022-08-27T01:50:15.557Z,100034.56
2022-08-27T01:52:43.461Z,100024.44
2022-08-27T01:55:13.719Z,100024.44
2022-08-27T01:57:41.727Z,100030.41
2022-08-27T02:00:27.654Z,100022.88
2022-08-27T02:02:56.924Z,100021.19
2022-08-27T02:05:24.595Z,100025.72
2022-08-27T02:07:52.203Z,100016.09
2022-08-27T02:10:25.242Z,100024.56
2022-08-27T02:12:53.004Z,100018.91
2022-08-27T02:15:21.447Z,100020.09
2022-08-27T02:17:49.004Z,100005.81
2022-08-27T02:20:17.764Z,100005.50
2022-08-27T02:22:45.294Z,100018.00
2022-08-27T02:25:17.759Z,100010.00
2022-08-27T02:27:44.859Z,100019.72
2022-08-27T02:30:15.296Z,100013.06
2022-08-27T02:32:42.395Z,100009.84
2022-08-27T02:35:09.551Z,100010.78
2022-08-27T02:37:37.944Z,100010.94
2022-08-27T02:40:08.012Z,100012.56
2022-08-27T02:42:35.064Z,100012.78
2022-08-27T02:45:02.056Z,100014.09
2022-08-27T02:47:29.186Z,100010.91
2022-08-27T02:49:56.355Z,100016.47
2022-08-27T02:52:25.139Z,100020.28
2022-08-27T02:54:53.066Z,100017.19
2022-08-27T02:57:20.037Z,100017.78
2022-08-27T02:59:47.707Z,100016.16
2022-08-27T03:02:14.931Z,100020.59
2022-08-27T03:04:42.470Z,100015.75
2022-08-27T03:07:13.588Z,100001.47
2022-08-27T03:09:45.839Z,100016.53
2022-08-27T03:12:12.893Z,100014.09
2022-08-27T03:14:40.732Z,100016.63
2022-08-27T03:17:26.527Z,100015.81
2022-08-27T03:19:54.143Z,100029.84
2022-08-27T03:22:21.155Z,100021.47
2022-08-27T03:24:48.195Z,100018.22
2022-08-27T03:27:15.446Z,100023.88
2022-08-27T03:29:42.377Z,100024.56
2022-08-27T03:32:09.694Z,100027.22
2022-08-27T03:34:36.791Z,100019.72
2022-08-27T03:37:03.924Z,100021.09
2022-08-27T03:39:31.085Z,100022.13
2022-08-27T03:41:57.982Z,100023.63
2022-08-27T03:44:24.990Z,100022.47
2022-08-27T03:46:52.350Z,100025.91
2022-08-27T03:49:21.577Z,100024.38
2022-08-27T03:51:51.422Z,100023.53
2022-08-27T03:54:19.099Z,100021.03
2022-08-27T03:56:46.987Z,100030.53
2022-08-27T03:59:15.679Z,100025.16
2022-08-27T04:01:44.413Z,100018.16
2022-08-27T04:04:13.101Z,100025.06
2022-08-27T04:06:40.915Z,100020.56
2022-08-27T04:09:07.954Z,100017.63
2022-08-27T04:11:35.709Z,100017.22
2022-08-27T04:14:19.873Z,100019.25
2022-08-27T04:16:54.868Z,100028.81
2022-08-27T04:19:26.993Z,100024.56
2022-08-27T04:21:54.608Z,100024.41
2022-08-27T04:24:21.600Z,100025.06
2022-08-27T04:26:48.642Z,100015.81
2022-08-27T04:29:16.075Z,100028.34
2022-08-27T04:31:43.069Z,100026.41
2022-08-27T04:34:10.782Z,100027.44
2022-08-27T04:36:37.724Z,100026.19
2022-08-27T04:39:04.708Z,100024.78
2022-08-27T04:41:33.538Z,100030.56
2022-08-27T04:44:09.326Z,100030.94
2022-08-27T04:46:40.540Z,100030.75
2022-08-27T04:49:14.558Z,100028.94
2022-08-27T04:51:43.062Z,100037.72
2022-08-27T04:54:11.150Z,100023.06
2022-08-27T04:56:39.996Z,100032.59
2022-08-27T04:59:10.078Z,100028.63
2022-08-27T05:01:39.330Z,100030.19
2022-08-27T05:04:07.488Z,100038.56
2022-08-27T05:06:36.805Z,100035.41
2022-08-27T05:09:05.638Z,100039.03
2022-08-27T05:11:34.630Z,100038.47
2022-08-27T05:14:11.060Z,100049.41
2022-08-27T05:16:38.535Z,100042.94
2022-08-27T05:19:10.639Z,100047.47
2022-08-27T05:21:40.849Z,100046.63
2022-08-27T05:24:08.786Z,100048.25
2022-08-27T05:26:37.427Z,100049.09
2022-08-27T05:29:06.599Z,100045.97
2022-08-27T05:31:34.820Z,100035.13
2022-08-27T05:34:02.419Z,100044.63
2022-08-27T05:36:37.491Z,100043.38
2022-08-27T05:39:06.243Z,100047.78
2022-08-27T05:41:34.565Z,100045.28
2022-08-27T05:44:39.098Z,100045.50
2022-08-27T05:46:57.047Z,100046.41
2022-08-27T05:49:24.063Z,100046.09
2022-08-27T05:51:51.100Z,100040.94
2022-08-27T05:54:21.228Z,100044.09
2022-08-27T05:56:49.933Z,100048.38
2022-08-27T05:59:36.667Z,100047.47
2022-08-27T06:02:06.162Z,100040.66
2022-08-27T06:04:33.309Z,100040.53
2022-08-27T06:07:00.272Z,100042.88
2022-08-27T06:09:29.490Z,100047.75
2022-08-27T06:12:00.026Z,100048.56
2022-08-27T06:14:27.678Z,100043.72
2022-08-27T06:16:55.647Z,100037.69
2022-08-27T06:19:23.701Z,100041.63
2022-08-27T06:22:01.037Z,100047.03
2022-08-27T06:24:40.203Z,100045.88
2022-08-27T06:27:10.559Z,100045.53
2022-08-27T06:29:37.600Z,100053.09
2022-08-27T06:32:05.428Z,100052.63
2022-08-27T06:34:33.607Z,100047.78
2022-08-27T06:37:00.575Z,100049.41
2022-08-27T06:39:28.424Z,100049.53
2022-08-27T06:41:58.524Z,100053.91
2022-08-27T06:44:25.808Z,100055.66
2022-08-27T06:46:53.085Z,100049.13
2022-08-27T06:49:20.145Z,100056.63
2022-08-27T06:51:48.086Z,100064.41
2022-08-27T06:54:16.698Z,100071.00
2022-08-27T06:56:49.204Z,100068.50
2022-08-27T06:59:18.839Z,100066.38
2022-08-27T07:01:51.657Z,100064.94
2022-08-27T07:04:25.381Z,100069.59
2022-08-27T07:07:02.120Z,100074.03
2022-08-27T07:09:31.942Z,100073.44
2022-08-27T07:11:59.873Z,100074.72
2022-08-27T07:14:27.393Z,100084.28
2022-08-27T07:16:55.255Z,100081.78
2022-08-27T07:19:22.385Z,100080.56
2022-08-27T07:21:50.786Z,100083.41
2022-08-27T07:24:19.006Z,100084.59
2022-08-27T07:26:46.584Z,100088.31
2022-08-27T07:29:15.759Z,100091.34
2022-08-27T07:31:43.645Z,100087.13
2022-08-27T07:34:10.711Z,100095.63
2022-08-27T07:36:38.570Z,100093.44
2022-08-27T07:39:06.146Z,100096.44
2022-08-27T07:41:54.397Z,100107.78
2022-08-27T07:44:28.222Z,100103.34
2022-08-27T07:47:02.082Z,100109.66
2022-08-27T07:49:30.406Z,100105.34
2022-08-27T07:51:57.482Z,100111.75
2022-08-27T07:54:25.429Z,100113.81
2022-08-27T07:56:55.010Z,100110.88
2022-08-27T07:59:26.130Z,100118.28
2022-08-27T08:01:56.031Z,100116.44
2022-08-27T08:04:23.736Z,100115.38
2022-08-27T08:06:51.765Z,100118.41
2022-08-27T08:09:22.065Z,100119.03
2022-08-27T08:11:50.057Z,100111.88
2022-08-27T08:14:18.728Z,100115.06
2022-08-27T08:16:46.459Z,100123.09
2022-08-27T08:19:13.767Z,100126.28
2022-08-27T08:21:40.947Z,100126.44
2022-08-27T08:24:08.416Z,100121.97
2022-08-27T08:26:35.901Z,100129.81
2022-08-27T08:29:05.056Z,100131.44
2022-08-27T08:31:32.276Z,100135.38
2022-08-27T08:33:59.377Z,100140.13
2022-08-27T08:36:26.309Z,100143.38
2022-08-27T08:38:54.242Z,100152.09
2022-08-27T08:41:59.636Z,100145.53
2022-08-27T08:44:46.159Z,100146.88
2022-08-27T08:47:33.330Z,100150.16
2022-08-27T08:50:08.588Z,100146.66
2022-08-27T08:52:37.124Z,100156.53
2022-08-27T08:55:25.048Z,100153.47
2022-08-27T08:58:25.088Z,100155.00
2022-08-27T09:01:00.004Z,100156.34
2022-08-27T09:03:29.108Z,100157.28
2022-08-27T09:06:05.791Z,100163.28
2022-08-27T09:08:43.340Z,100163.06
2022-08-27T09:11:36.902Z,100162.75
2022-08-27T09:14:23.201Z,100169.19
2022-08-27T09:16:50.664Z,100158.22
2022-08-27T09:19:24.074Z,100166.53
2022-08-27T09:22:01.328Z,100158.22
2022-08-27T09:24:53.277Z,100158.00
2022-08-27T09:27:23.088Z,100159.63
2022-08-27T09:29:53.777Z,100152.94
2022-08-27T09:32:39.944Z,100156.38
2022-08-27T09:35:11.397Z,100153.09
2022-08-27T09:37:48.106Z,100152.84
2022-08-27T09:40:32.295Z,100147.28
2022-08-27T09:43:28.461Z,100156.94
2022-08-27T09:46:07.309Z,100155.31
2022-08-27T09:48:37.371Z,100152.44
2022-08-27T09:51:13.657Z,100152.06
2022-08-27T09:54:03.193Z,100155.06
2022-08-27T09:56:40.366Z,100155.34
2022-08-27T09:59:08.625Z,100150.59
2022-08-27T10:02:11.150Z,100148.94
2022-08-27T10:04:52.739Z,100145.91
2022-08-27T10:07:53.878Z,100154.28
2022-08-27T10:10:29.948Z,100146.94
2022-08-27T10:13:10.358Z,100154.06
2022-08-27T10:15:57.797Z,100154.00
2022-08-27T10:18:41.253Z,100162.66
2022-08-27T10:21:24.165Z,100165.31
2022-08-27T10:24:05.733Z,100166.56
2022-08-27T10:27:09.591Z,100158.41
2022-08-27T10:30:14.109Z,100166.03
2022-08-27T10:33:20.254Z,100167.38
2022-08-27T10:36:22.105Z,100170.88
2022-08-27T10:39:01.066Z,100169.28
2022-08-27T10:41:46.614Z,100172.19
2022-08-27T10:44:36.846Z,100164.97
2022-08-27T10:47:06.962Z,100174.56
2022-08-27T10:49:52.170Z,100172.78
2022-08-27T10:52:43.431Z,100173.72
2022-08-27T10:55:39.051Z,100179.28
2022-08-27T10:58:43.642Z,100175.44
2022-08-27T11:01:26.645Z,100169.69
2022-08-27T11:04:10.116Z,100166.41
2022-08-27T11:06:50.479Z,100170.75
2022-08-27T11:09:31.625Z,100169.28
2022-08-27T11:12:17.623Z,100181.75
2022-08-27T11:15:25.496Z,100171.19
2022-08-27T11:18:25.955Z,100167.94
2022-08-27T11:21:01.971Z,100165.16
2022-08-27T11:23:43.935Z,100152.88
2022-08-27T11:26:12.392Z,100153.84
2022-08-27T11:28:58.739Z,100158.25
2022-08-27T11:31:43.679Z,100153.44
2022-08-27T11:34:22.423Z,100153.69
2022-08-27T11:37:13.323Z,100146.63
2022-08-27T11:39:53.388Z,100143.75
2022-08-27T11:42:42.149Z,100138.09
2022-08-27T11:45:24.689Z,100138.63
2022-08-27T11:48:15.713Z,100143.31
2022-08-27T11:51:18.879Z,100140.81
2022-08-27T11:54:06.981Z,100130.06
2022-08-27T11:56:35.949Z,100137.66
2022-08-27T11:59:27.225Z,100138.53
2022-08-27T12:02:18.278Z,100135.44
2022-08-27T12:04:45.807Z,100135.00
2022-08-27T12:07:18.999Z,100135.59
2022-08-27T12:10:17.103Z,100133.84
2022-08-27T12:12:57.904Z,100132.28
2022-08-27T12:15:55.909Z,100132.88
2022-08-27T12:18:40.443Z,100125.38
2022-08-27T12:21:36.517Z,100117.19
2022-08-27T12:24:24.599Z,100115.13
2022-08-27T12:27:29.563Z,100113.22
2022-08-27T12:30:06.811Z,100111.88
2022-08-27T12:32:36.680Z,100105.78
2022-08-27T12:35:23.159Z,100105.03
2022-08-27T12:38:18.895Z,100105.16
2022-08-27T12:40:54.309Z,100099.94
2022-08-27T12:43:29.130Z,100098.25
2022-08-27T12:46:03.701Z,100103.63
2022-08-27T12:48:39.415Z,100106.06
2022-08-27T12:51:16.894Z,100105.16
2022-08-27T12:54:30.026Z,100097.31
2022-08-27T12:57:15.007Z,100097.19
2022-08-27T13:00:19.172Z,100101.56
2022-08-27T13:03:20.241Z,100100.63
2022-08-27T13:05:50.741Z,100097.16
2022-08-27T13:08:23.955Z,100088.41
2022-08-27T13:10:51.082Z,100096.16
2022-08-27T13:13:22.889Z,100090.22
2022-08-27T13:15:59.460Z,100091.22
2022-08-27T13:18:29.945Z,100081.13
2022-08-27T13:21:14.893Z,100080.25
2022-08-27T13:23:59.018Z,100077.34
2022-08-27T13:26:34.008Z,100081.13
2022-08-27T13:29:03.820Z,100071.78
2022-08-27T13:31:33.758Z,100071.16
2022-08-27T13:34:03.898Z,100070.25
2022-08-27T13:36:59.397Z,100066.34
2022-08-27T13:39:28.143Z,100073.59
2022-08-27T13:41:59.174Z,100073.34
2022-08-27T13:44:40.037Z,100076.81
2022-08-27T13:47:14.051Z,100073.38
2022-08-27T13:49:41.516Z,100070.91
2022-08-27T13:52:31.029Z,100066.06
2022-08-27T13:55:08.286Z,100054.66
2022-08-27T13:57:48.681Z,100049.78
2022-08-27T14:00:28.104Z,100059.56
2022-08-27T14:02:56.703Z,100055.19
2022-08-27T14:05:23.617Z,100059.84
2022-08-27T14:07:59.518Z,100070.47
2022-08-27T14:10:44.353Z,100060.03
2022-08-27T14:13:17.230Z,100068.91
2022-08-27T14:15:48.263Z,100066.63
2022-08-27T14:18:58.444Z,100070.00
2022-08-27T14:21:23.651Z,100061.66
2022-08-27T14:23:50.666Z,100065.78
2022-08-27T14:26:17.949Z,100065.91
2022-08-27T14:28:46.212Z,100056.84
2022-08-27T14:31:14.848Z,100056.03
2022-08-27T14:33:41.951Z,100046.19
2022-08-27T14:36:10.003Z,100044.84
2022-08-27T14:38:40.974Z,100054.56
2022-08-27T14:41:09.020Z,100045.19
2022-08-27T14:43:36.514Z,100056.81
2022-08-27T14:46:05.208Z,100045.97
2022-08-27T14:48:34.210Z,100038.91
2022-08-27T14:51:10.578Z,100035.06
2022-08-27T14:53:37.562Z,100047.13
2022-08-27T14:56:04.778Z,100057.28
2022-08-27T14:58:31.699Z,100052.38
2022-08-27T15:00:58.758Z,100041.63
2022-08-27T15:03:25.991Z,100045.78
2022-08-27T15:05:55.400Z,100036.13
2022-08-27T15:08:29.092Z,100050.84
2022-08-27T15:10:58.003Z,100040.78
2022-08-27T15:13:25.092Z,100046.34
2022-08-27T15:15:52.262Z,100049.94
2022-08-27T15:18:20.321Z,100049.25
2022-08-27T15:20:48.042Z,100037.44
2022-08-27T15:23:15.835Z,100034.03
2022-08-27T15:25:45.923Z,100037.78
2022-08-27T15:28:13.610Z,100037.56
2022-08-27T15:30:40.731Z,100034.34
2022-08-27T15:33:08.016Z,100025.59
2022-08-27T15:35:35.580Z,100028.06
2022-08-27T15:38:02.700Z,100025.13
2022-08-27T15:40:35.437Z,100029.13
2022-08-27T15:43:05.798Z,100027.13
2022-08-27T15:45:33.646Z,100037.31
2022-08-27T15:48:01.288Z,100033.53
2022-08-27T15:50:31.082Z,100038.09
2022-08-27T15:53:04.851Z,100026.16
2022-08-27T15:55:36.123Z,100023.81
2022-08-27T15:58:04.600Z,100023.28
2022-08-27T16:00:33.815Z,100023.97
2022-08-27T16:03:11.288Z,100024.69
2022-08-27T16:05:40.962Z,100031.91
2022-08-27T16:08:11.090Z,100042.66
2022-08-27T16:10:38.758Z,100044.38
2022-08-27T16:13:05.715Z,100037.69
2022-08-27T16:15:39.335Z,100023.44
2022-08-27T16:18:09.373Z,100015.41
2022-08-27T16:20:37.212Z,100012.63
2022-08-27T16:23:04.499Z,100022.69
2022-08-27T16:25:31.540Z,100025.31
2022-08-27T16:28:00.975Z,100028.19
2022-08-27T16:30:28.822Z,100032.66
2022-08-27T16:32:55.990Z,100029.19
2022-08-27T16:35:23.687Z,100031.91
2022-08-27T16:37:51.483Z,100041.41
2022-08-27T16:40:19.032Z,100033.75
2022-08-27T16:42:50.299Z,100038.41
2022-08-27T16:45:22.392Z,100037.53
2022-08-27T16:48:09.111Z,100040.50
2022-08-27T16:50:36.746Z,100041.16
2022-08-27T16:53:16.099Z,100043.41
2022-08-27T16:55:45.505Z,100041.81
2022-08-27T16:58:24.076Z,100047.69
2022-08-27T17:01:02.793Z,100055.03
2022-08-27T17:03:44.112Z,100054.38
2022-08-27T17:06:21.028Z,100052.44
2022-08-27T17:08:49.747Z,100043.31
2022-08-27T17:11:25.150Z,100044.97
2022-08-27T17:13:53.127Z,100048.81
2022-08-27T17:16:24.882Z,100049.22
2022-08-27T17:18:52.508Z,100046.81
2022-08-27T17:21:21.642Z,100053.47
2022-08-27T17:23:52.618Z,100046.47
2022-08-27T17:26:23.083Z,100046.16
2022-08-27T17:28:50.418Z,100052.13
2022-08-27T17:31:39.315Z,100057.69
2022-08-27T17:34:14.104Z,100059.53
2022-08-27T17:36:41.066Z,100053.41
2022-08-27T17:39:12.453Z,100060.09
2022-08-27T17:41:43.410Z,100062.44
2022-08-27T17:44:24.408Z,100059.31
2022-08-27T17:46:53.861Z,100059.84
2022-08-27T17:49:21.315Z,100059.50
2022-08-27T17:51:49.979Z,100066.91
2022-08-27T17:54:34.230Z,100067.91
2022-08-27T17:57:05.199Z,100065.31
2022-08-27T17:59:32.149Z,100069.00
2022-08-27T18:01:59.312Z,100069.13
2022-08-27T18:04:26.733Z,100068.56
2022-08-27T18:06:53.670Z,100072.38
2022-08-27T18:09:20.623Z,100078.97
2022-08-27T18:11:48.250Z,100074.00
2022-08-27T18:14:18.481Z,100082.75
2022-08-27T18:16:46.506Z,100089.94
2022-08-27T18:19:13.663Z,100086.53
2022-08-27T18:21:46.805Z,100088.97
2022-08-27T18:24:15.410Z,100092.38
2022-08-27T18:26:43.615Z,100094.78
2022-08-27T18:29:13.335Z,100089.94
2022-08-27T18:31:40.531Z,100099.75
2022-08-27T18:34:07.733Z,100089.88
2022-08-27T18:36:34.662Z,100090.28
2022-08-27T18:39:02.077Z,100094.09
2022-08-27T18:41:31.296Z,100089.47
2022-08-27T18:43:59.909Z,100096.31
2022-08-27T18:46:27.361Z,100102.31
2022-08-27T18:48:54.379Z,100102.56
2022-08-27T18:51:21.595Z,100100.00
2022-08-27T18:53:48.964Z,100110.00
2022-08-27T18:56:19.440Z,100112.47
2022-08-27T18:58:47.246Z,100109.41
2022-08-27T19:01:19.969Z,100115.38
2022-08-27T19:03:50.539Z,100115.97
2022-08-27T19:06:20.442Z,100118.03
2022-08-27T19:08:49.766Z,100128.84
2022-08-27T19:11:17.117Z,100127.38
2022-08-27T19:13:44.259Z,100136.63
2022-08-27T19:16:50.550Z,100131.00
2022-08-27T19:19:18.471Z,100124.97
2022-08-27T19:21:50.677Z,100127.78
2022-08-27T19:24:20.635Z,100125.28
2022-08-27T19:26:49.327Z,100138.44
2022-08-27T19:29:16.664Z,100132.63
2022-08-27T19:31:43.883Z,100133.50
2022-08-27T19:34:11.231Z,100135.72
2022-08-27T19:36:42.331Z,100139.66
2022-08-27T19:39:12.242Z,100138.13
2022-08-27T19:41:39.342Z,100152.22
2022-08-27T19:44:06.269Z,100150.09
2022-08-27T19:46:35.364Z,100162.59
2022-08-27T19:49:03.132Z,100159.34
2022-08-27T19:51:30.283Z,100154.88
2022-08-27T19:53:57.234Z,100160.63
2022-08-27T19:56:24.218Z,100160.94
2022-08-27T19:58:55.213Z,100167.75
2022-08-27T20:01:24.028Z,100169.22
2022-08-27T20:03:51.270Z,100168.44
2022-08-27T20:06:18.565Z,100166.91
2022-08-27T20:08:45.699Z,100178.56
2022-08-27T20:11:17.880Z,100183.19
2022-08-27T20:13:50.623Z,100186.28
2022-08-27T20:16:18.082Z,100176.94
2022-08-27T20:18:45.218Z,100183.38
2022-08-27T20:21:12.266Z,100187.97
2022-08-27T20:23:39.225Z,100190.75
2022-08-27T20:26:06.385Z,100181.97
2022-08-27T20:28:39.463Z,100194.44
2022-08-27T20:31:08.359Z,100204.97
2022-08-27T20:33:35.455Z,100199.25
2022-08-27T20:36:02.727Z,100205.59
2022-08-27T20:38:30.115Z,100204.91
2022-08-27T20:40:57.205Z,100203.38
2022-08-27T20:43:24.298Z,100206.72
2022-08-27T20:45:51.448Z,100199.34
2022-08-27T20:48:18.883Z,100214.03
2022-08-27T20:50:46.319Z,100198.53
2022-08-27T20:53:13.435Z,100203.69
2022-08-27T20:55:41.071Z,100193.91
2022-08-27T20:58:26.816Z,100207.56
2022-08-27T21:00:55.605Z,100208.38
2022-08-27T21:03:23.504Z,100209.66
2022-08-27T21:05:50.790Z,100207.88
2022-08-27T21:08:22.096Z,100204.78
2022-08-27T21:10:56.833Z,100201.16
2022-08-27T21:13:27.718Z,100197.13
2022-08-27T21:15:56.626Z,100198.91
2022-08-27T21:18:29.421Z,100193.69
2022-08-27T21:20:58.223Z,100197.53
2022-08-27T21:23:27.713Z,100199.56
2022-08-27T21:25:59.809Z,100198.31
2022-08-27T21:28:26.933Z,100199.19
2022-08-27T21:30:53.950Z,100196.16
2022-08-27T21:33:21.124Z,100191.91
2022-08-27T21:35:48.194Z,100194.13
2022-08-27T21:38:15.377Z,100207.94
2022-08-27T21:40:42.570Z,100194.31
2022-08-27T21:43:09.639Z,100191.91
2022-08-27T21:45:39.134Z,100194.19
2022-08-27T21:48:06.174Z,100195.59
2022-08-27T21:50:33.231Z,100200.47
2022-08-27T21:53:00.206Z,100200.03
2022-08-27T21:55:27.256Z,100190.28
2022-08-27T21:57:54.179Z,100188.69
2022-08-27T22:00:29.997Z,100195.19
2022-08-27T22:02:57.534Z,100191.97
2022-08-27T22:05:24.707Z,100198.31
2022-08-27T22:07:51.927Z,100195.84
2022-08-27T22:10:19.283Z,100202.75
2022-08-27T22:12:46.411Z,100195.69
2022-08-27T22:15:13.886Z,100197.31
2022-08-27T22:17:40.988Z,100191.00
2022-08-27T22:20:10.176Z,100182.69
2022-08-27T22:22:37.258Z,100181.09
2022-08-27T22:25:05.698Z,100174.97
2022-08-27T22:27:32.790Z,100182.69
2022-08-27T22:29:59.861Z,100185.78
2022-08-27T22:32:27.088Z,100180.25
2022-08-27T22:34:54.044Z,100186.19
2022-08-27T22:37:21.183Z,100195.75
2022-08-27T22:39:48.223Z,100183.16
2022-08-27T22:42:17.724Z,100192.88
2022-08-27T22:44:45.491Z,100192.75
2022-08-27T22:47:14.829Z,100195.38
2022-08-27T22:49:43.722Z,100196.56
2022-08-27T22:52:11.498Z,100201.84
2022-08-27T22:54:38.931Z,100199.19
2022-08-27T22:57:06.270Z,100193.94
2022-08-27T22:59:38.766Z,100198.38
2022-08-27T23:02:08.560Z,100197.38
2022-08-27T23:04:54.176Z,100194.53
2022-08-27T23:07:21.971Z,100193.56
2022-08-27T23:09:50.276Z,100198.38
2022-08-27T23:12:17.598Z,100196.75
2022-08-27T23:14:44.540Z,100206.88
2022-08-27T23:17:11.594Z,100207.50
2022-08-27T23:19:38.583Z,100205.88
2022-08-27T23:22:07.382Z,100202.66
2022-08-27T23:24:55.400Z,100205.66
2022-08-27T23:27:31.241Z,100197.97
2022-08-27T23:30:00.975Z,100202.63
2022-08-27T23:32:29.066Z,100203.03
2022-08-27T23:34:56.479Z,100204.47
2022-08-27T23:37:24.032Z,100202.63
2022-08-27T23:39:51.351Z,100212.19
2022-08-27T23:42:18.787Z,100219.44
2022-08-27T23:44:47.020Z,100220.25
2022-08-27T23:47:14.697Z,100216.81
2022-08-27T23:49:43.402Z,100229.75
2022-08-27T23:52:12.642Z,100213.97
2022-08-27T23:54:40.480Z,100220.88
2022-08-27T23:57:07.535Z,100226.97
2022-08-27T23:59:34.597Z,100232.00
